createdAt,value
2023-03-30T00:02:19.343Z,4.51
2023-03-30T00:05:31.486Z,4.56
2023-03-30T00:08:44.885Z,4.58
2023-03-30T00:11:57.151Z,4.47
2023-03-30T00:15:12.570Z,4.66
2023-03-30T00:18:25.293Z,4.69
2023-03-30T00:21:37.723Z,4.74
2023-03-30T00:24:49.864Z,4.77
2023-03-30T00:28:02.055Z,4.80
2023-03-30T00:31:15.157Z,4.83
2023-03-30T00:34:28.217Z,4.84
2023-03-30T00:37:40.956Z,4.86
2023-03-30T00:41:00.914Z,4.85
2023-03-30T00:44:30.488Z,4.89
2023-03-30T00:47:46.808Z,4.91
2023-03-30T00:51:01.054Z,4.93
2023-03-30T00:54:17.921Z,4.93
2023-03-30T00:57:32.728Z,4.95
2023-03-30T01:00:47.432Z,4.95
2023-03-30T01:04:02.348Z,4.95
2023-03-30T01:07:16.690Z,4.98
2023-03-30T01:10:29.244Z,5.00
2023-03-30T01:13:46.143Z,5.00
2023-03-30T01:17:04.772Z,4.99
2023-03-30T01:21:04.385Z,5.03
2023-03-30T01:25:03.539Z,5.06
2023-03-30T01:28:31.927Z,5.06
2023-03-30T01:32:03.804Z,5.04
2023-03-30T01:35:47.997Z,5.05
2023-03-30T01:39:35.347Z,5.06
2023-03-30T01:42:53.762Z,5.06
2023-03-30T01:46:11.214Z,5.09
2023-03-30T01:49:28.395Z,5.11
2023-03-30T01:52:48.580Z,5.14
2023-03-30T01:56:06.905Z,5.15
2023-03-30T01:59:27.310Z,5.16
2023-03-30T02:02:41.051Z,5.14
2023-03-30T02:05:57.357Z,5.06
2023-03-30T02:09:10.167Z,4.89
2023-03-30T02:12:23.090Z,4.73
2023-03-30T02:15:41.134Z,4.57
2023-03-30T02:18:55.006Z,4.50
2023-03-30T02:22:08.867Z,4.47
2023-03-30T02:25:23.480Z,4.45
2023-03-30T02:28:35.818Z,4.47
2023-03-30T02:31:48.622Z,4.31
2023-03-30T02:35:31.792Z,4.40
2023-03-30T02:39:09.198Z,4.62
2023-03-30T02:42:46.254Z,4.68
2023-03-30T02:46:05.214Z,4.75
2023-03-30T02:49:26.028Z,4.77
2023-03-30T02:52:50.338Z,4.83
2023-03-30T02:56:11.652Z,4.87
2023-03-30T02:59:33.040Z,4.90
2023-03-30T03:02:47.121Z,4.91
2023-03-30T03:06:02.933Z,4.89
2023-03-30T03:09:17.818Z,4.89
2023-03-30T03:12:30.640Z,4.90
2023-03-30T03:15:44.911Z,4.91
2023-03-30T03:18:57.404Z,4.93
2023-03-30T03:22:10.311Z,4.93
2023-03-30T03:25:22.844Z,4.94
2023-03-30T03:28:40.880Z,4.99
2023-03-30T03:31:53.208Z,5.00
2023-03-30T03:35:07.561Z,5.03
2023-03-30T03:38:20.456Z,4.97
2023-03-30T03:41:33.825Z,4.95
2023-03-30T03:44:46.052Z,4.94
2023-03-30T03:47:59.952Z,4.88
2023-03-30T03:51:17.101Z,4.88
2023-03-30T03:54:29.788Z,4.90
2023-03-30T03:57:42.081Z,4.92
2023-03-30T04:00:54.976Z,5.00
2023-03-30T04:04:07.455Z,5.04
2023-03-30T04:07:19.735Z,5.07
2023-03-30T04:10:32.229Z,5.08
2023-03-30T04:13:54.392Z,5.09
2023-03-30T04:17:26.171Z,5.09
2023-03-30T04:20:52.906Z,5.11
2023-03-30T04:24:14.812Z,5.11
2023-03-30T04:27:38.593Z,5.13
2023-03-30T04:31:09.547Z,5.14
2023-03-30T04:34:24.931Z,5.17
2023-03-30T04:37:41.648Z,5.17
2023-03-30T04:41:14.424Z,5.23
2023-03-30T04:44:29.100Z,5.24
2023-03-30T04:47:46.910Z,5.31
2023-03-30T04:51:08.667Z,5.35
2023-03-30T04:54:26.263Z,5.41
2023-03-30T04:57:46.817Z,5.48
2023-03-30T05:01:04.142Z,5.57
2023-03-30T05:04:24.522Z,5.66
2023-03-30T05:07:56.321Z,5.79
2023-03-30T05:11:17.097Z,5.97
2023-03-30T05:14:32.340Z,6.17
2023-03-30T05:17:46.927Z,6.31
2023-03-30T05:21:04.848Z,6.41
2023-03-30T05:24:22.004Z,6.42
2023-03-30T05:27:36.202Z,6.32
2023-03-30T05:30:51.144Z,6.26
2023-03-30T05:34:11.615Z,6.27
2023-03-30T05:37:28.551Z,6.30
2023-03-30T05:40:43.686Z,6.43
2023-03-30T05:44:03.919Z,6.48
2023-03-30T05:47:18.365Z,6.52
2023-03-30T05:50:51.482Z,6.65
2023-03-30T05:54:06.982Z,6.78
2023-03-30T05:57:31.487Z,6.86
2023-03-30T06:00:49.923Z,6.96
2023-03-30T06:04:05.123Z,7.03
2023-03-30T06:07:18.621Z,7.16
2023-03-30T06:10:31.502Z,7.24
2023-03-30T06:13:44.685Z,7.31
2023-03-30T06:16:57.964Z,7.38
2023-03-30T06:20:13.650Z,7.43
2023-03-30T06:23:28.062Z,7.48
2023-03-30T06:26:41.358Z,7.59
2023-03-30T06:29:53.624Z,7.61
2023-03-30T06:33:06.091Z,7.65
2023-03-30T06:36:44.533Z,7.74
2023-03-30T06:39:43.921Z,7.89
2023-03-30T06:42:57.269Z,7.93
2023-03-30T06:46:23.788Z,8.07
2023-03-30T06:49:36.818Z,8.30
2023-03-30T06:53:08.661Z,8.53
2023-03-30T06:56:26.902Z,8.46
2023-03-30T06:59:47.129Z,8.49
2023-03-30T07:03:07.221Z,8.58
2023-03-30T07:06:27.564Z,8.66
2023-03-30T07:09:40.532Z,8.67
2023-03-30T07:12:53.823Z,8.73
2023-03-30T07:16:08.338Z,8.79
2023-03-30T07:19:20.963Z,8.92
2023-03-30T07:22:33.468Z,9.14
2023-03-30T07:25:46.548Z,9.39
2023-03-30T07:29:01.744Z,9.53
2023-03-30T07:32:14.487Z,9.67
2023-03-30T07:35:27.334Z,9.92
2023-03-30T07:38:40.373Z,10.30
2023-03-30T07:41:54.305Z,10.53
2023-03-30T07:45:07.513Z,10.72
2023-03-30T07:48:20.088Z,11.11
2023-03-30T07:51:32.961Z,11.47
2023-03-30T07:54:54.924Z,11.45
2023-03-30T07:58:09.403Z,11.47
2023-03-30T08:01:21.552Z,11.29
2023-03-30T08:04:53.405Z,11.31
2023-03-30T08:08:10.936Z,11.67
2023-03-30T08:11:23.973Z,11.99
2023-03-30T08:14:36.466Z,12.60
2023-03-30T08:17:48.935Z,12.58
2023-03-30T08:21:02.208Z,12.12
2023-03-30T08:24:16.399Z,12.09
2023-03-30T08:27:28.659Z,12.14
2023-03-30T08:30:41.212Z,12.17
2023-03-30T08:33:53.450Z,12.62
2023-03-30T08:37:05.926Z,12.77
2023-03-30T08:40:20.591Z,12.47
2023-03-30T08:43:51.580Z,13.66
2023-03-30T08:47:05.998Z,13.87
2023-03-30T08:50:23.447Z,13.51
2023-03-30T08:53:38.705Z,13.32
2023-03-30T08:56:56.182Z,13.17
2023-03-30T09:00:21.722Z,13.18
2023-03-30T09:03:41.474Z,13.08
2023-03-30T09:06:59.810Z,12.95
2023-03-30T09:10:20.057Z,12.85
2023-03-30T09:13:38.130Z,12.75
2023-03-30T09:16:57.393Z,12.75
2023-03-30T09:20:16.544Z,12.85
2023-03-30T09:23:30.117Z,12.85
2023-03-30T09:26:48.574Z,12.67
2023-03-30T09:30:06.099Z,12.83
2023-03-30T09:33:31.167Z,12.68
2023-03-30T09:36:48.439Z,12.71
2023-03-30T09:40:00.691Z,12.91
2023-03-30T09:43:19.448Z,12.97
2023-03-30T09:46:32.663Z,12.98
2023-03-30T09:49:47.597Z,13.03
2023-03-30T09:53:10.363Z,13.12
2023-03-30T09:56:34.032Z,13.15
2023-03-30T09:59:46.432Z,13.09
2023-03-30T10:03:05.693Z,13.02
2023-03-30T10:06:23.881Z,13.15
2023-03-30T10:09:36.727Z,13.19
2023-03-30T10:12:49.296Z,13.32
2023-03-30T10:16:04.469Z,13.65
2023-03-30T10:19:25.273Z,14.68
2023-03-30T10:22:37.918Z,14.96
2023-03-30T10:25:53.491Z,15.64
2023-03-30T10:29:11.205Z,16.70
2023-03-30T10:32:28.337Z,16.78
2023-03-30T10:35:41.638Z,17.22
2023-03-30T10:38:54.286Z,17.35
2023-03-30T10:42:09.876Z,17.59
2023-03-30T10:45:31.328Z,17.43
2023-03-30T10:48:56.961Z,17.18
2023-03-30T10:52:17.562Z,16.96
2023-03-30T10:55:37.107Z,17.13
2023-03-30T10:59:03.066Z,16.51
2023-03-30T11:02:40.197Z,15.75
2023-03-30T11:05:56.973Z,15.30
2023-03-30T11:09:11.665Z,15.40
2023-03-30T11:12:27.312Z,16.15
2023-03-30T11:15:45.621Z,16.36
2023-03-30T11:19:04.124Z,16.76
2023-03-30T11:22:23.174Z,17.25
2023-03-30T11:25:41.254Z,17.39
2023-03-30T11:29:07.285Z,18.10
2023-03-30T11:32:29.546Z,18.60
2023-03-30T11:35:47.441Z,18.31
2023-03-30T11:39:07.370Z,17.80
2023-03-30T11:42:25.627Z,17.53
2023-03-30T11:46:02.750Z,16.95
2023-03-30T11:49:38.441Z,16.87
2023-03-30T11:52:59.015Z,16.72
2023-03-30T11:56:16.360Z,16.39
2023-03-30T11:59:35.863Z,16.14
2023-03-30T12:02:54.932Z,15.92
2023-03-30T12:06:25.213Z,15.73
2023-03-30T12:09:41.058Z,15.63
2023-03-30T12:12:56.103Z,15.54
2023-03-30T12:16:13.038Z,15.69
2023-03-30T12:19:26.506Z,16.09
2023-03-30T12:22:45.625Z,16.40
2023-03-30T12:26:18.070Z,16.90
2023-03-30T12:29:52.536Z,17.55
2023-03-30T12:32:55.095Z,17.51
2023-03-30T12:36:09.958Z,17.28
2023-03-30T12:39:30.830Z,16.65
2023-03-30T12:42:47.188Z,16.44
2023-03-30T12:46:06.541Z,16.21
2023-03-30T12:49:28.082Z,16.34
2023-03-30T12:52:50.170Z,16.24
2023-03-30T12:56:10.165Z,16.06
2023-03-30T13:00:07.572Z,16.11
2023-03-30T13:03:46.017Z,16.10
2023-03-30T13:07:02.998Z,16.10
2023-03-30T13:10:42.027Z,15.96
2023-03-30T13:14:03.208Z,15.77
2023-03-30T13:17:24.207Z,15.72
2023-03-30T13:20:55.155Z,15.62
2023-03-30T13:24:25.205Z,15.59
2023-03-30T13:27:41.923Z,15.57
2023-03-30T13:30:54.382Z,15.65
2023-03-30T13:34:14.802Z,15.79
2023-03-30T13:37:31.583Z,15.80
2023-03-30T13:44:25.140Z,15.83
2023-03-30T13:47:58.496Z,15.88
2023-03-30T13:51:14.366Z,15.83
2023-03-30T13:54:31.915Z,15.79
2023-03-30T13:57:47.496Z,15.75
2023-03-30T14:01:03.777Z,15.68
2023-03-30T14:04:18.746Z,15.70
2023-03-30T14:07:31.076Z,15.63
2023-03-30T14:10:43.388Z,15.58
2023-03-30T14:13:59.562Z,15.53
2023-03-30T14:17:23.767Z,15.45
2023-03-30T14:20:51.013Z,15.40
2023-03-30T14:24:03.297Z,15.38
2023-03-30T14:27:20.443Z,15.34
2023-03-30T14:30:35.040Z,15.32
2023-03-30T14:33:47.743Z,15.34
2023-03-30T14:37:00.818Z,15.30
2023-03-30T14:40:20.599Z,15.24
2023-03-30T14:43:39.431Z,15.21
2023-03-30T14:46:55.100Z,15.21
2023-03-30T14:50:12.135Z,15.19
2023-03-30T14:53:25.340Z,15.19
2023-03-30T14:56:38.401Z,15.17
2023-03-30T14:59:55.327Z,15.14
2023-03-30T15:03:19.590Z,15.11
2023-03-30T15:06:29.590Z,15.07
2023-03-30T15:09:46.348Z,15.03
2023-03-30T15:13:01.276Z,15.00
2023-03-30T15:16:15.984Z,14.93
2023-03-30T15:19:35.362Z,14.91
2023-03-30T15:22:51.919Z,14.90
2023-03-30T15:26:08.828Z,14.89
2023-03-30T15:29:24.523Z,14.89
2023-03-30T15:32:42.594Z,14.89
2023-03-30T15:35:59.872Z,14.84
2023-03-30T15:39:28.165Z,14.82
2023-03-30T15:42:42.328Z,14.75
2023-03-30T15:46:01.996Z,14.72
2023-03-30T15:49:17.133Z,14.58
2023-03-30T15:52:34.259Z,14.51
2023-03-30T15:55:46.145Z,14.43
2023-03-30T15:58:59.301Z,14.36
2023-03-30T16:02:21.958Z,14.27
2023-03-30T16:05:37.092Z,14.17
2023-03-30T16:08:49.680Z,14.03
2023-03-30T16:12:04.516Z,13.94
2023-03-30T16:15:26.961Z,13.85
2023-03-30T16:18:42.110Z,13.78
2023-03-30T16:21:54.947Z,13.76
2023-03-30T16:25:07.885Z,13.76
2023-03-30T16:28:23.115Z,13.68
2023-03-30T16:31:36.599Z,13.62
2023-03-30T16:34:49.502Z,13.55
2023-03-30T16:38:02.235Z,13.44
2023-03-30T16:41:17.506Z,13.33
2023-03-30T16:44:31.153Z,13.32
2023-03-30T16:50:50.078Z,13.12
2023-03-30T16:54:02.355Z,13.11
2023-03-30T16:57:16.924Z,13.08
2023-03-30T17:00:33.669Z,13.04
2023-03-30T17:03:47.146Z,12.96
2023-03-30T17:07:00.188Z,12.87
2023-03-30T17:10:24.436Z,12.78
2023-03-30T17:13:37.740Z,12.59
2023-03-30T17:16:50.367Z,12.54
2023-03-30T17:20:05.174Z,12.43
2023-03-30T17:23:17.824Z,12.34
2023-03-30T17:26:30.553Z,12.21
2023-03-30T17:29:43.009Z,12.15
2023-03-30T17:32:58.080Z,12.03
2023-03-30T17:36:16.655Z,11.96
2023-03-30T17:39:28.897Z,11.88
2023-03-30T17:42:41.470Z,11.83
2023-03-30T17:45:55.173Z,11.82
2023-03-30T17:49:08.026Z,11.76
2023-03-30T17:52:20.464Z,11.79
2023-03-30T17:55:35.505Z,11.73
2023-03-30T17:58:49.482Z,11.65
2023-03-30T18:02:02.215Z,11.57
2023-03-30T18:05:16.123Z,11.51
2023-03-30T18:08:30.045Z,11.50
2023-03-30T18:11:43.123Z,11.37
2023-03-30T18:14:55.528Z,11.26
2023-03-30T18:18:17.015Z,11.20
2023-03-30T18:21:29.367Z,11.06
2023-03-30T18:24:43.354Z,11.13
2023-03-30T18:27:56.905Z,11.08
2023-03-30T18:31:10.800Z,11.00
2023-03-30T18:34:23.502Z,11.03
2023-03-30T18:37:35.948Z,11.00
2023-03-30T18:40:50.687Z,11.00
2023-03-30T18:44:03.424Z,10.98
2023-03-30T18:47:16.992Z,11.00
2023-03-30T18:50:36.642Z,10.98
2023-03-30T18:53:49.155Z,11.01
2023-03-30T18:57:02.591Z,11.01
2023-03-30T19:00:26.639Z,10.95
2023-03-30T19:03:39.144Z,10.99
2023-03-30T19:06:53.193Z,11.02
2023-03-30T19:10:05.539Z,11.02
2023-03-30T19:13:21.628Z,10.96
2023-03-30T19:16:34.010Z,10.92
2023-03-30T19:19:46.315Z,10.91
2023-03-30T19:22:59.278Z,10.84
2023-03-30T19:26:11.840Z,10.85
2023-03-30T19:29:24.077Z,10.84
2023-03-30T19:32:36.276Z,10.89
2023-03-30T19:35:49.432Z,10.92
2023-03-30T19:39:02.687Z,10.96
2023-03-30T19:42:15.070Z,10.95
2023-03-30T19:45:31.573Z,10.96
2023-03-30T19:48:44.278Z,10.96
2023-03-30T19:51:56.712Z,11.00
2023-03-30T19:55:09.640Z,11.00
2023-03-30T19:58:21.920Z,11.03
2023-03-30T20:01:34.253Z,11.05
2023-03-30T20:04:47.020Z,11.06
2023-03-30T20:08:03.559Z,11.06
2023-03-30T20:11:16.751Z,11.08
2023-03-30T20:14:29.074Z,11.06
2023-03-30T20:17:42.389Z,11.08
2023-03-30T20:20:54.864Z,11.09
2023-03-30T20:24:07.599Z,11.13
2023-03-30T20:27:19.895Z,11.16
2023-03-30T20:30:32.376Z,11.18
2023-03-30T20:33:44.893Z,11.20
2023-03-30T20:36:57.359Z,11.23
2023-03-30T20:40:12.206Z,11.25
2023-03-30T20:43:26.309Z,11.28
2023-03-30T20:46:39.322Z,11.30
2023-03-30T20:49:51.535Z,11.29
2023-03-30T20:53:04.193Z,11.29
2023-03-30T20:56:17.180Z,11.28
2023-03-30T20:59:29.534Z,11.28
2023-03-30T21:02:41.886Z,11.32
2023-03-30T21:05:58.338Z,11.31
2023-03-30T21:09:13.021Z,11.29
2023-03-30T21:12:26.208Z,11.30
2023-03-30T21:15:38.582Z,11.30
2023-03-30T21:18:51.178Z,11.29
2023-03-30T21:22:04.218Z,11.28
2023-03-30T21:25:18.046Z,11.25
2023-03-30T21:28:31.603Z,11.23
2023-03-30T21:31:43.793Z,11.22
2023-03-30T21:34:56.099Z,11.22
2023-03-30T21:38:08.231Z,11.22
2023-03-30T21:41:24.392Z,11.22
2023-03-30T21:44:39.486Z,11.21
2023-03-30T21:47:52.046Z,11.21
2023-03-30T21:51:09.791Z,11.19
2023-03-30T21:54:22.096Z,11.20
2023-03-30T21:57:34.474Z,11.17
2023-03-30T22:00:46.856Z,11.19
2023-03-30T22:04:00.011Z,11.20
2023-03-30T22:07:12.793Z,11.19
2023-03-30T22:10:26.135Z,11.19
2023-03-30T22:13:39.366Z,11.20
2023-03-30T22:16:51.873Z,11.18
2023-03-30T22:20:04.385Z,11.18
2023-03-30T22:23:16.600Z,11.20
2023-03-30T22:26:29.330Z,11.19
2023-03-30T22:29:41.528Z,11.18
2023-03-30T22:32:53.724Z,11.07
2023-03-30T22:36:07.752Z,11.13
2023-03-30T22:39:21.242Z,11.11
2023-03-30T22:42:33.938Z,11.10
2023-03-30T22:45:47.592Z,11.07
2023-03-30T22:49:00.292Z,11.07
2023-03-30T22:52:12.732Z,11.02
2023-03-30T22:55:25.956Z,11.01
2023-03-30T22:58:38.347Z,10.97
2023-03-30T23:01:50.681Z,10.95
2023-03-30T23:05:03.686Z,10.91
2023-03-30T23:08:16.818Z,10.89
2023-03-30T23:11:29.279Z,10.85
2023-03-30T23:14:43.241Z,10.82
2023-03-30T23:17:55.737Z,10.80
2023-03-30T23:21:11.173Z,10.79
2023-03-30T23:24:23.670Z,10.78
2023-03-30T23:27:37.057Z,10.79
2023-03-30T23:30:49.327Z,10.81
2023-03-30T23:34:02.965Z,10.83
2023-03-30T23:37:17.721Z,10.85
2023-03-30T23:40:30.046Z,10.86
2023-03-30T23:43:42.236Z,10.90
2023-03-30T23:46:55.088Z,10.89
2023-03-30T23:50:07.882Z,10.88
2023-03-30T23:53:20.508Z,10.87
2023-03-30T23:56:32.722Z,10.83
2023-03-30T23:59:45.454Z,10.83
